sensor_id;sensor_type;location;lat;lon;timestamp;pressure;altitude;pressure_sealevel;temperature;humidity
34031;BME280;20319;28.466;-16.274;2024-02-26T15:51:35;95871.91;;;19.96;99.57
34031;BME280;20319;28.466;-16.274;2024-02-26T15:54:01;95865.91;;;19.86;96.38
34031;BME280;20319;28.466;-16.274;2024-02-26T15:56:27;95873.69;;;19.79;94.78
34031;BME280;20319;28.466;-16.274;2024-02-26T15:58:53;95824.84;;;19.16;92.99
34031;BME280;20319;28.466;-16.274;2024-02-26T16:01:19;95860.66;;;19.18;93.64
34031;BME280;20319;28.466;-16.274;2024-02-26T16:03:45;95826.09;;;18.83;95.79
34031;BME280;20319;28.466;-16.274;2024-02-26T16:06:41;95894.25;;;19.36;93.23
34031;BME280;20319;28.466;-16.274;2024-02-26T16:09:08;95897.44;;;19.38;94.75
34031;BME280;20319;28.466;-16.274;2024-02-26T16:11:34;95889.31;;;19.38;94.73
34031;BME280;20319;28.466;-16.274;2024-02-26T16:17:02;95897.38;;;19.29;93.67
34031;BME280;20319;28.466;-16.274;2024-02-26T16:19:31;95820.16;;;18.67;94.74
34031;BME280;20319;28.466;-16.274;2024-02-26T16:21:57;95886.28;;;19.12;92.79
34031;BME280;20319;28.466;-16.274;2024-02-26T16:24:22;95838.16;;;18.77;91.83
34031;BME280;20319;28.466;-16.274;2024-02-26T16:26:48;95828.72;;;18.74;89.44
34031;BME280;20319;28.466;-16.274;2024-02-26T16:29:13;95909.59;;;19.27;88.34
34031;BME280;20319;28.466;-16.274;2024-02-26T16:31:39;95824.09;;;18.75;88.10
34031;BME280;20319;28.466;-16.274;2024-02-26T16:34:05;95895.25;;;19.12;87.23
34031;BME280;20319;28.466;-16.274;2024-02-26T16:36:30;95894.13;;;18.86;85.81
34031;BME280;20319;28.466;-16.274;2024-02-26T16:38:56;95916.94;;;18.85;85.97
34031;BME280;20319;28.466;-16.274;2024-02-26T16:41:22;95836.47;;;18.22;85.26
34031;BME280;20319;28.466;-16.274;2024-02-26T16:43:48;95880.94;;;18.39;85.74
34031;BME280;20319;28.466;-16.274;2024-02-26T16:46:13;95841.22;;;17.98;86.50
34031;BME280;20319;28.466;-16.274;2024-02-26T16:48:42;95845.94;;;17.92;86.69
34031;BME280;20319;28.466;-16.274;2024-02-26T16:51:07;95775.44;;;17.46;86.59
34031;BME280;20319;28.466;-16.274;2024-02-26T16:53:33;95871.94;;;17.93;86.58
34031;BME280;20319;28.466;-16.274;2024-02-26T16:55:58;95850.97;;;17.66;87.13
34031;BME280;20319;28.466;-16.274;2024-02-26T16:58:27;95899.28;;;17.78;88.36
34031;BME280;20319;28.466;-16.274;2024-02-26T17:00:53;95891.81;;;17.70;88.90
34031;BME280;20319;28.466;-16.274;2024-02-26T17:03:18;95901.56;;;17.52;89.39
34031;BME280;20319;28.466;-16.274;2024-02-26T17:05:44;95895.44;;;17.42;90.65
34031;BME280;20319;28.466;-16.274;2024-02-26T17:08:10;95916.69;;;17.53;92.13
34031;BME280;20319;28.466;-16.274;2024-02-26T17:10:38;95909.47;;;17.49;93.46
34031;BME280;20319;28.466;-16.274;2024-02-26T17:13:04;95895.94;;;17.44;94.05
34031;BME280;20319;28.466;-16.274;2024-02-26T17:15:30;95828.41;;;16.97;94.31
34031;BME280;20319;28.466;-16.274;2024-02-26T17:17:55;95807.19;;;16.85;94.26
34031;BME280;20319;28.466;-16.274;2024-02-26T17:20:21;95888.78;;;17.34;95.40
34031;BME280;20319;28.466;-16.274;2024-02-26T17:22:46;95900.69;;;17.57;96.00
34031;BME280;20319;28.466;-16.274;2024-02-26T17:25:12;95885.31;;;17.52;96.17
34031;BME280;20319;28.466;-16.274;2024-02-26T17:27:39;95889.84;;;17.57;96.67
34031;BME280;20319;28.466;-16.274;2024-02-26T17:30:05;95825.88;;;17.24;96.36
34031;BME280;20319;28.466;-16.274;2024-02-26T17:32:32;95877.31;;;17.61;94.87
34031;BME280;20319;28.466;-16.274;2024-02-26T17:34:59;95897.09;;;17.61;94.68
34031;BME280;20319;28.466;-16.274;2024-02-26T17:37:24;95880.19;;;17.51;95.15
34031;BME280;20319;28.466;-16.274;2024-02-26T17:39:50;95776.91;;;16.83;95.05
34031;BME280;20319;28.466;-16.274;2024-02-26T17:42:16;95778.00;;;16.82;94.77
34031;BME280;20319;28.466;-16.274;2024-02-26T17:44:42;95888.38;;;17.46;95.13
34031;BME280;20319;28.466;-16.274;2024-02-26T17:47:08;95871.72;;;17.34;95.52
34031;BME280;20319;28.466;-16.274;2024-02-26T17:49:34;95835.66;;;17.01;95.91
34031;BME280;20319;28.466;-16.274;2024-02-26T17:52:00;95810.75;;;16.81;95.67
34031;BME280;20319;28.466;-16.274;2024-02-26T17:54:26;95841.94;;;16.97;96.29
34031;BME280;20319;28.466;-16.274;2024-02-26T17:56:53;95891.00;;;17.09;96.68
34031;BME280;20319;28.466;-16.274;2024-02-26T17:59:20;95914.06;;;17.25;96.04
34031;BME280;20319;28.466;-16.274;2024-02-26T18:01:45;95877.53;;;17.04;96.46
34031;BME280;20319;28.466;-16.274;2024-02-26T18:04:12;95886.00;;;16.97;95.97
34031;BME280;20319;28.466;-16.274;2024-02-26T18:06:38;95893.84;;;16.99;95.49
34031;BME280;20319;28.466;-16.274;2024-02-26T18:09:04;95817.25;;;16.33;95.82
34031;BME280;20319;28.466;-16.274;2024-02-26T18:11:32;95911.38;;;16.83;95.97
34031;BME280;20319;28.466;-16.274;2024-02-26T18:13:59;95915.25;;;16.72;95.98
34031;BME280;20319;28.466;-16.274;2024-02-26T18:16:25;95749.28;;;15.68;95.72
34031;BME280;20319;28.466;-16.274;2024-02-26T18:18:51;95898.97;;;16.53;96.50
34031;BME280;20319;28.466;-16.274;2024-02-26T18:21:16;95925.66;;;16.60;97.20
34031;BME280;20319;28.466;-16.274;2024-02-26T18:23:43;95926.47;;;16.60;97.70
34031;BME280;20319;28.466;-16.274;2024-02-26T18:26:09;95900.47;;;16.36;98.19
34031;BME280;20319;28.466;-16.274;2024-02-26T18:28:35;95867.69;;;16.13;99.08
34031;BME280;20319;28.466;-16.274;2024-02-26T18:31:00;95922.91;;;16.36;99.86
34031;BME280;20319;28.466;-16.274;2024-02-26T18:33:26;95851.44;;;15.90;100.00
34031;BME280;20319;28.466;-16.274;2024-02-26T18:35:51;95902.50;;;16.20;100.00
34031;BME280;20319;28.466;-16.274;2024-02-26T18:38:17;95939.69;;;16.33;100.00
34031;BME280;20319;28.466;-16.274;2024-02-26T18:40:43;95938.34;;;16.30;100.00
34031;BME280;20319;28.466;-16.274;2024-02-26T18:43:08;95870.47;;;15.75;100.00
34031;BME280;20319;28.466;-16.274;2024-02-26T18:45:34;95850.28;;;15.67;100.00
34031;BME280;20319;28.466;-16.274;2024-02-26T18:47:59;95859.47;;;15.66;100.00
34031;BME280;20319;28.466;-16.274;2024-02-26T18:50:26;95931.31;;;16.01;100.00
34031;BME280;20319;28.466;-16.274;2024-02-26T18:52:51;95879.44;;;15.65;100.00
34031;BME280;20319;28.466;-16.274;2024-02-26T18:55:17;95938.56;;;16.05;100.00
34031;BME280;20319;28.466;-16.274;2024-02-26T18:57:43;95946.09;;;16.08;100.00
34031;BME280;20319;28.466;-16.274;2024-02-26T19:00:08;95938.09;;;15.98;100.00
34031;BME280;20319;28.466;-16.274;2024-02-26T19:02:37;95923.53;;;15.94;100.00
34031;BME280;20319;28.466;-16.274;2024-02-26T19:05:03;95864.44;;;15.49;100.00
34031;BME280;20319;28.466;-16.274;2024-02-26T19:07:28;95854.28;;;15.41;100.00
34031;BME280;20319;28.466;-16.274;2024-02-26T19:09:54;95956.72;;;16.00;100.00
34031;BME280;20319;28.466;-16.274;2024-02-26T19:12:20;95874.72;;;15.47;100.00
34031;BME280;20319;28.466;-16.274;2024-02-26T19:14:47;95932.78;;;15.83;100.00
34031;BME280;20319;28.466;-16.274;2024-02-26T19:17:12;95830.13;;;15.11;100.00
34031;BME280;20319;28.466;-16.274;2024-02-26T19:19:38;95863.19;;;15.32;100.00
34031;BME280;20319;28.466;-16.274;2024-02-26T19:22:04;95859.72;;;15.26;100.00
34031;BME280;20319;28.466;-16.274;2024-02-26T19:24:32;95886.88;;;15.45;100.00
34031;BME280;20319;28.466;-16.274;2024-02-26T19:26:57;95860.47;;;15.32;100.00
34031;BME280;20319;28.466;-16.274;2024-02-26T19:29:23;95905.16;;;15.58;100.00
34031;BME280;20319;28.466;-16.274;2024-02-26T19:31:50;95920.19;;;15.69;100.00
34031;BME280;20319;28.466;-16.274;2024-02-26T19:34:16;95915.69;;;15.54;100.00
34031;BME280;20319;28.466;-16.274;2024-02-26T19:36:41;95871.59;;;15.25;100.00
34031;BME280;20319;28.466;-16.274;2024-02-26T19:39:08;95951.28;;;15.66;100.00
34031;BME280;20319;28.466;-16.274;2024-02-26T19:41:34;95853.63;;;15.11;100.00
34031;BME280;20319;28.466;-16.274;2024-02-26T19:44:00;95953.41;;;15.69;100.00
34031;BME280;20319;28.466;-16.274;2024-02-26T19:46:26;95972.06;;;15.66;100.00
34031;BME280;20319;28.466;-16.274;2024-02-26T19:48:51;95931.13;;;15.49;100.00
34031;BME280;20319;28.466;-16.274;2024-02-26T19:51:18;95856.63;;;15.04;100.00
34031;BME280;20319;28.466;-16.274;2024-02-26T19:53:45;95891.06;;;15.17;100.00
34031;BME280;20319;28.466;-16.274;2024-02-26T19:56:11;95943.00;;;15.48;100.00
34031;BME280;20319;28.466;-16.274;2024-02-26T19:58:36;95786.75;;;14.54;100.00
34031;BME280;20319;28.466;-16.274;2024-02-26T20:01:03;95893.81;;;15.07;100.00
34031;BME280;20319;28.466;-16.274;2024-02-26T20:03:28;95885.22;;;15.00;100.00
34031;BME280;20319;28.466;-16.274;2024-02-26T20:05:54;95947.38;;;15.34;100.00
34031;BME280;20319;28.466;-16.274;2024-02-26T20:08:19;95843.31;;;14.64;100.00
34031;BME280;20319;28.466;-16.274;2024-02-26T20:10:45;95887.72;;;14.87;100.00
34031;BME280;20319;28.466;-16.274;2024-02-26T20:13:15;95921.91;;;15.01;100.00
34031;BME280;20319;28.466;-16.274;2024-02-26T20:15:41;95983.00;;;15.41;100.00
34031;BME280;20319;28.466;-16.274;2024-02-26T20:18:07;95973.81;;;15.32;100.00
34031;BME280;20319;28.466;-16.274;2024-02-26T20:20:33;95997.81;;;15.43;100.00
34031;BME280;20319;28.466;-16.274;2024-02-26T20:22:58;95974.66;;;15.22;100.00
34031;BME280;20319;28.466;-16.274;2024-02-26T20:25:24;95990.28;;;15.30;100.00
34031;BME280;20319;28.466;-16.274;2024-02-26T20:27:49;95840.19;;;14.32;100.00
34031;BME280;20319;28.466;-16.274;2024-02-26T20:30:15;96000.28;;;15.30;100.00
34031;BME280;20319;28.466;-16.274;2024-02-26T20:32:42;95996.50;;;15.26;100.00
34031;BME280;20319;28.466;-16.274;2024-02-26T20:35:08;96005.44;;;15.26;100.00
34031;BME280;20319;28.466;-16.274;2024-02-26T20:37:34;95989.81;;;15.13;100.00
34031;BME280;20319;28.466;-16.274;2024-02-26T20:40:00;96022.94;;;15.29;100.00
34031;BME280;20319;28.466;-16.274;2024-02-26T20:42:26;95998.69;;;15.24;100.00
34031;BME280;20319;28.466;-16.274;2024-02-26T20:44:51;95975.50;;;15.18;100.00
34031;BME280;20319;28.466;-16.274;2024-02-26T20:47:17;95908.19;;;14.82;100.00
34031;BME280;20319;28.466;-16.274;2024-02-26T20:49:43;96015.09;;;15.47;100.00
34031;BME280;20319;28.466;-16.274;2024-02-26T20:52:09;95995.16;;;15.33;100.00
34031;BME280;20319;28.466;-16.274;2024-02-26T20:54:34;95961.50;;;15.16;100.00
34031;BME280;20319;28.466;-16.274;2024-02-26T20:57:00;96007.56;;;15.34;100.00
34031;BME280;20319;28.466;-16.274;2024-02-26T20:59:28;95996.00;;;15.24;100.00
34031;BME280;20319;28.466;-16.274;2024-02-26T21:01:53;95953.25;;;14.77;100.00
34031;BME280;20319;28.466;-16.274;2024-02-26T21:04:19;95964.06;;;14.72;100.00
34031;BME280;20319;28.466;-16.274;2024-02-26T21:06:44;96002.84;;;14.91;100.00
34031;BME280;20319;28.466;-16.274;2024-02-26T21:09:10;96043.22;;;15.16;100.00
34031;BME280;20319;28.466;-16.274;2024-02-26T21:11:36;95916.16;;;14.34;100.00
34031;BME280;20319;28.466;-16.274;2024-02-26T21:14:03;96044.31;;;15.10;100.00
34031;BME280;20319;28.466;-16.274;2024-02-26T21:16:28;96026.56;;;14.99;100.00
34031;BME280;20319;28.466;-16.274;2024-02-26T21:18:54;95905.38;;;14.19;100.00
34031;BME280;20319;28.466;-16.274;2024-02-26T21:21:20;96020.09;;;14.90;100.00
34031;BME280;20319;28.466;-16.274;2024-02-26T21:23:48;96038.94;;;15.00;100.00
34031;BME280;20319;28.466;-16.274;2024-02-26T21:26:14;96055.94;;;15.16;100.00
34031;BME280;20319;28.466;-16.274;2024-02-26T21:28:41;95970.00;;;14.64;100.00
34031;BME280;20319;28.466;-16.274;2024-02-26T21:31:07;96017.91;;;14.97;100.00
34031;BME280;20319;28.466;-16.274;2024-02-26T21:33:34;95959.78;;;14.61;100.00
34031;BME280;20319;28.466;-16.274;2024-02-26T21:35:59;95942.50;;;14.57;100.00
34031;BME280;20319;28.466;-16.274;2024-02-26T21:38:26;96023.00;;;15.14;100.00
34031;BME280;20319;28.466;-16.274;2024-02-26T21:40:51;96042.66;;;15.29;100.00
34031;BME280;20319;28.466;-16.274;2024-02-26T21:43:17;96045.88;;;15.36;100.00
34031;BME280;20319;28.466;-16.274;2024-02-26T21:45:43;96034.84;;;15.28;100.00
34031;BME280;20319;28.466;-16.274;2024-02-26T21:48:08;95885.72;;;14.38;100.00
34031;BME280;20319;28.466;-16.274;2024-02-26T21:50:34;95980.44;;;14.91;100.00
34031;BME280;20319;28.466;-16.274;2024-02-26T21:53:00;96052.06;;;15.32;100.00
34031;BME280;20319;28.466;-16.274;2024-02-26T21:55:26;96048.59;;;15.31;100.00
